Time,TemperatureF,DewpointF,PressureIn,WindDirection,WindDirectionDegrees,WindSpeedMPH,WindSpeedGustMPH,Humidity,HourlyPrecipIn,Conditions,Clouds,dailyrainin,SoftwareType,DateUTC
2013-03-27 00:05:00,33.6,33.6,29.68,NW,315,0.0,0.0,100,0.00,,,0.00,WSDL version 423,2013-03-27 04:05:00,
2013-03-27 00:15:00,33.3,33.3,29.68,NW,315,0.0,0.0,100,0.00,,,0.00,WSDL version 423,2013-03-27 04:15:00,
2013-03-27 00:25:00,33.1,33.1,29.68,NW,315,0.0,0.0,100,0.00,,,0.00,WSDL version 423,2013-03-27 04:25:00,
2013-03-27 00:35:00,32.7,32.7,29.68,NW,315,0.0,0.0,100,0.00,,,0.00,WSDL version 423,2013-03-27 04:35:00,
2013-03-27 00:45:00,32.4,32.4,29.68,NW,315,0.0,0.0,100,0.00,,,0.00,WSDL version 423,2013-03-27 04:45:00,
2013-03-27 00:55:00,32.2,32.2,29.68,NW,315,0.0,0.0,100,0.00,,,0.00,WSDL version 423,2013-03-27 04:55:00,
2013-03-27 01:05:00,32.2,32.2,29.68,NW,315,0.0,0.0,100,0.00,,,0.00,WSDL version 423,2013-03-27 05:05:00,
2013-03-27 01:15:00,31.8,31.8,29.68,NW,315,0.0,0.0,100,0.00,,,0.00,WSDL version 423,2013-03-27 05:15:00,
2013-03-27 01:25:00,31.6,31.6,29.68,NW,315,0.0,0.0,100,0.00,,,0.00,WSDL version 423,2013-03-27 05:25:00,
2013-03-27 01:35:00,31.3,31.3,29.68,NW,315,0.0,0.0,100,0.00,,,0.00,WSDL version 423,2013-03-27 05:35:00,
2013-03-27 01:45:00,31.0,31.0,29.68,NW,315,0.0,0.0,100,0.00,,,0.00,WSDL version 423,2013-03-27 05:45:00,
2013-03-27 01:55:00,30.8,30.8,29.68,NW,315,0.0,0.0,100,0.00,,,0.00,WSDL version 423,2013-03-27 05:55:00,
2013-03-27 02:05:00,30.4,30.4,29.67,NW,315,0.0,0.0,100,0.00,,,0.00,WSDL version 423,2013-03-27 06:05:00,
2013-03-27 02:15:00,30.1,30.1,29.67,NW,315,0.0,0.0,100,0.00,,,0.00,WSDL version 423,2013-03-27 06:15:00,
2013-03-27 02:25:00,29.8,29.8,29.67,NW,315,0.0,0.0,100,0.00,,,0.00,WSDL version 423,2013-03-27 06:25:00,
2013-03-27 02:35:00,29.7,29.7,29.67,NW,315,0.0,0.0,100,0.00,,,0.00,WSDL version 423,2013-03-27 06:35:00,
2013-03-27 02:45:00,29.4,29.4,29.67,NW,315,0.0,0.0,100,0.00,,,0.00,WSDL version 423,2013-03-27 06:45:00,
2013-03-27 02:55:00,29.1,29.1,29.67,NW,315,0.0,0.0,100,0.00,,,0.00,WSDL version 423,2013-03-27 06:55:00,
2013-03-27 03:05:00,29.6,29.6,29.67,NW,315,0.0,0.0,100,0.00,,,0.00,WSDL version 423,2013-03-27 07:05:00,
2013-03-27 03:15:00,29.8,29.8,29.67,NW,315,0.0,0.0,100,0.00,,,0.00,WSDL version 423,2013-03-27 07:15:00,
2013-03-27 03:25:00,29.9,29.9,29.67,NW,315,0.0,0.0,100,0.00,,,0.00,WSDL version 423,2013-03-27 07:25:00,
2013-03-27 03:35:00,29.8,29.8,29.67,NW,315,0.0,0.0,100,0.00,,,0.00,WSDL version 423,2013-03-27 07:35:00,
2013-03-27 03:45:00,30.0,30.0,29.66,NW,315,0.0,0.0,100,0.00,,,0.00,WSDL version 423,2013-03-27 07:45:00,
2013-03-27 03:55:00,30.0,30.0,29.66,NW,315,0.0,0.0,100,0.00,,,0.00,WSDL version 423,2013-03-27 07:55:00,
2013-03-27 04:05:00,29.5,29.5,29.66,NW,315,0.0,0.0,100,0.00,,,0.00,WSDL version 423,2013-03-27 08:05:00,
2013-03-27 04:15:00,29.2,29.2,29.67,NW,315,0.0,0.0,100,0.00,,,0.00,WSDL version 423,2013-03-27 08:15:00,
2013-03-27 04:25:00,28.9,28.9,29.67,NW,315,0.0,0.0,100,0.00,,,0.00,WSDL version 423,2013-03-27 08:25:00,
2013-03-27 04:35:00,28.6,28.6,29.66,NW,315,0.0,0.0,100,0.00,,,0.00,WSDL version 423,2013-03-27 08:35:00,
2013-03-27 04:45:00,28.3,28.3,29.67,NW,315,0.0,0.0,100,0.00,,,0.00,WSDL version 423,2013-03-27 08:45:00,
2013-03-27 04:55:00,28.0,28.0,29.67,NW,315,0.0,0.0,100,0.00,,,0.00,WSDL version 423,2013-03-27 08:55:00,
2013-03-27 05:05:00,27.9,27.9,29.66,NW,315,0.0,0.0,100,0.00,,,0.00,WSDL version 423,2013-03-27 09:05:00,
2013-03-27 05:15:00,27.7,27.7,29.67,NW,315,0.0,0.0,100,0.00,,,0.00,WSDL version 423,2013-03-27 09:15:00,
2013-03-27 05:25:00,27.5,27.5,29.68,NW,315,0.0,0.0,100,0.00,,,0.00,WSDL version 423,2013-03-27 09:25:00,
2013-03-27 05:35:00,27.5,27.5,29.67,NW,315,0.0,0.0,100,0.00,,,0.00,WSDL version 423,2013-03-27 09:35:00,
2013-03-27 05:45:00,27.3,27.3,29.68,NW,315,0.0,0.0,100,0.00,,,0.00,WSDL version 423,2013-03-27 09:45:00,
2013-03-27 05:55:00,27.0,27.0,29.68,NW,315,0.0,0.0,100,0.00,,,0.00,WSDL version 423,2013-03-27 09:55:00,
2013-03-27 06:05:00,27.0,27.0,29.68,NW,315,0.0,0.0,100,0.00,,,0.00,WSDL version 423,2013-03-27 10:05:00,
2013-03-27 06:15:00,26.8,26.8,29.68,NW,315,0.0,0.0,100,0.00,,,0.00,WSDL version 423,2013-03-27 10:15:00,
2013-03-27 06:25:00,26.8,26.8,29.68,NW,315,0.0,0.0,100,0.00,,,0.00,WSDL version 423,2013-03-27 10:25:00,
2013-03-27 06:35:00,26.7,26.7,29.68,NW,315,0.0,0.0,100,0.00,,,0.00,WSDL version 423,2013-03-27 10:35:00,
2013-03-27 06:45:00,26.7,26.7,29.69,NW,315,0.0,0.0,100,0.00,,,0.00,WSDL version 423,2013-03-27 10:45:00,
2013-03-27 06:55:00,27.0,27.0,29.69,NW,315,0.0,0.0,100,0.00,,,0.00,WSDL version 423,2013-03-27 10:55:00,
2013-03-27 07:05:00,27.2,27.2,29.69,NW,315,0.0,0.0,100,0.00,,,0.00,WSDL version 423,2013-03-27 11:05:00,
2013-03-27 07:15:00,27.6,27.6,29.69,NW,315,0.0,0.0,100,0.00,,,0.00,WSDL version 423,2013-03-27 11:15:00,
2013-03-27 07:25:00,27.9,27.9,29.69,NW,315,0.0,0.0,100,0.00,,,0.00,WSDL version 423,2013-03-27 11:25:00,
2013-03-27 07:35:00,28.5,28.5,29.70,NW,315,0.0,0.0,100,0.00,,,0.00,WSDL version 423,2013-03-27 11:35:00,
2013-03-27 07:45:00,29.4,29.4,29.70,NW,315,0.0,0.0,100,0.00,,,0.00,WSDL version 423,2013-03-27 11:45:00,
2013-03-27 07:55:00,31.0,31.0,29.70,NW,315,0.0,2.2,100,0.00,,,0.00,WSDL version 423,2013-03-27 11:55:00,
2013-03-27 08:05:00,32.9,32.9,29.70,NW,315,0.0,3.1,100,0.00,,,0.00,WSDL version 423,2013-03-27 12:05:00,
2013-03-27 08:15:00,34.7,34.7,29.70,SE,131,0.0,4.0,100,0.00,,,0.00,WSDL version 423,2013-03-27 12:15:00,
2013-03-27 08:25:00,35.9,35.9,29.70,NNW,338,0.0,2.2,100,0.00,,,0.00,WSDL version 423,2013-03-27 12:25:00,
2013-03-27 08:42:00,38.8,38.8,29.70,NW,310,0.0,3.1,100,0.00,,,0.00,WSDL version 423,2013-03-27 12:42:00,
2013-03-27 08:52:00,40.5,40.5,29.70,NE,53,1.5,3.6,100,0.00,,,0.00,WSDL version 423,2013-03-27 12:52:00,
2013-03-27 09:02:00,41.9,41.9,29.69,SSE,150,0.0,4.0,100,0.00,,,0.00,WSDL version 423,2013-03-27 13:02:00,
2013-03-27 09:12:00,43.0,43.0,29.70,WSW,248,1.1,5.4,100,0.00,,,0.00,WSDL version 423,2013-03-27 13:12:00,
2013-03-27 09:22:00,44.4,44.4,29.70,NW,325,0.0,8.1,100,0.00,,,0.00,WSDL version 423,2013-03-27 13:22:00,
2013-03-27 09:32:00,45.6,45.6,29.69,WSW,248,1.1,4.9,100,0.00,,,0.00,WSDL version 423,2013-03-27 13:32:00,
2013-03-27 09:42:00,47.5,47.5,29.69,WNW,283,0.0,4.0,100,0.00,,,0.00,WSDL version 423,2013-03-27 13:42:00,
2013-03-27 09:52:00,48.9,48.9,29.69,NE,42,0.0,3.6,100,0.00,,,0.00,WSDL version 423,2013-03-27 13:52:00,
2013-03-27 10:02:00,49.1,49.1,29.69,WNW,301,0.0,5.8,100,0.00,,,0.00,WSDL version 423,2013-03-27 14:02:00,
2013-03-27 10:12:00,49.6,49.6,29.68,NW,309,0.0,3.6,100,0.00,,,0.00,WSDL version 423,2013-03-27 14:12:00,
2013-03-27 10:22:00,49.7,49.7,29.68,East,86,0.9,6.3,100,0.00,,,0.00,WSDL version 423,2013-03-27 14:22:00,
2013-03-27 10:32:00,49.9,49.9,29.68,NNE,25,0.3,4.9,100,0.00,,,0.00,WSDL version 423,2013-03-27 14:32:00,
2013-03-27 10:42:00,50.7,50.7,29.67,NNW,344,0.0,4.5,100,0.00,,,0.00,WSDL version 423,2013-03-27 14:42:00,
2013-03-27 10:52:00,52.3,52.3,29.67,NNW,331,1.0,5.8,100,0.00,,,0.00,WSDL version 423,2013-03-27 14:52:00,
2013-03-27 11:02:00,51.7,51.7,29.67,NE,34,1.6,4.0,100,0.00,,,0.00,WSDL version 423,2013-03-27 15:02:00,
2013-03-27 11:12:00,51.5,51.5,29.67,WSW,253,1.6,9.6,100,0.00,,,0.00,WSDL version 423,2013-03-27 15:12:00,
2013-03-27 11:22:00,52.5,52.5,29.67,WSW,251,2.2,5.4,100,0.00,,,0.00,WSDL version 423,2013-03-27 15:22:00,
2013-03-27 11:32:00,53.3,53.3,29.67,ESE,109,0.8,3.6,100,0.00,,,0.00,WSDL version 423,2013-03-27 15:32:00,
2013-03-27 11:42:00,53.3,53.3,29.66,NE,45,2.1,6.7,100,0.00,,,0.00,WSDL version 423,2013-03-27 15:42:00,
2013-03-27 11:52:00,54.5,54.5,29.66,NNW,332,2.5,6.3,100,0.00,,,0.00,WSDL version 423,2013-03-27 15:52:00,
2013-03-27 12:02:00,52.6,52.6,29.66,ESE,104,0.0,5.4,100,0.00,,,0.00,WSDL version 423,2013-03-27 16:02:00,
2013-03-27 12:12:00,53.1,53.1,29.65,WSW,244,2.0,4.9,100,0.00,,,0.00,WSDL version 423,2013-03-27 16:12:00,
2013-03-27 12:24:00,54.1,54.1,29.66,NNE,23,2.4,6.7,100,0.00,,,0.00,WSDL version 423,2013-03-27 16:24:00,
2013-03-27 12:34:00,54.3,54.3,29.65,WSW,248,2.4,6.7,100,0.00,,,0.00,WSDL version 423,2013-03-27 16:34:00,
2013-03-27 12:44:00,54.8,54.8,29.65,East,98,1.1,5.4,100,0.00,,,0.00,WSDL version 423,2013-03-27 16:44:00,
2013-03-27 12:54:00,56.9,56.9,29.65,South,190,1.2,4.9,100,0.00,,,0.00,WSDL version 423,2013-03-27 16:54:00,
2013-03-27 13:04:00,55.3,55.3,29.65,WNW,287,0.8,4.9,100,0.00,,,0.00,WSDL version 423,2013-03-27 17:04:00,
2013-03-27 13:14:00,54.2,54.2,29.65,ENE,70,2.2,6.3,100,0.00,,,0.00,WSDL version 423,2013-03-27 17:14:00,
2013-03-27 13:24:00,52.4,52.4,29.65,NNW,335,0.0,5.8,100,0.00,,,0.00,WSDL version 423,2013-03-27 17:24:00,
2013-03-27 13:34:00,51.6,51.6,29.65,NW,309,0.6,4.5,100,0.00,,,0.00,WSDL version 423,2013-03-27 17:34:00,
2013-03-27 13:44:00,54.3,54.3,29.65,NW,308,0.0,3.1,100,0.00,,,0.00,WSDL version 423,2013-03-27 17:44:00,
2013-03-27 13:54:00,57.0,57.0,29.64,NW,315,0.0,6.3,100,0.00,,,0.00,WSDL version 423,2013-03-27 17:54:00,
2013-03-27 14:04:00,53.2,53.2,29.65,NE,37,0.0,4.9,100,0.00,,,0.00,WSDL version 423,2013-03-27 18:04:00,
2013-03-27 14:14:00,53.5,53.5,29.64,ENE,60,0.0,2.7,100,0.00,,,0.00,WSDL version 423,2013-03-27 18:14:00,
2013-03-27 14:24:00,53.3,53.3,29.64,SE,141,0.0,4.9,100,0.00,,,0.00,WSDL version 423,2013-03-27 18:24:00,
2013-03-27 14:34:00,54.4,54.4,29.64,NNE,23,3.2,4.9,100,0.00,,,0.00,WSDL version 423,2013-03-27 18:34:00,
2013-03-27 14:44:00,54.7,54.7,29.64,NNW,340,0.4,5.8,100,0.00,,,0.00,WSDL version 423,2013-03-27 18:44:00,
2013-03-27 14:54:00,53.4,53.4,29.64,NE,48,1.1,3.1,100,0.00,,,0.00,WSDL version 423,2013-03-27 18:54:00,
2013-03-27 15:04:00,52.6,52.6,29.64,East,84,0.0,4.9,100,0.00,,,0.00,WSDL version 423,2013-03-27 19:04:00,
2013-03-27 15:14:00,52.6,52.6,29.64,North,8,1.6,4.9,100,0.00,,,0.00,WSDL version 423,2013-03-27 19:14:00,
2013-03-27 15:24:00,52.1,52.1,29.65,North,8,1.0,4.0,100,0.00,,,0.00,WSDL version 423,2013-03-27 19:24:00,
2013-03-27 15:34:00,52.0,52.0,29.65,North,350,0.0,4.9,100,0.00,,,0.00,WSDL version 423,2013-03-27 19:34:00,
2013-03-27 15:44:00,52.6,52.6,29.65,North,8,1.5,4.0,100,0.00,,,0.00,WSDL version 423,2013-03-27 19:44:00,
2013-03-27 15:54:00,51.6,51.6,29.65,South,171,0.0,5.4,100,0.00,,,0.00,WSDL version 423,2013-03-27 19:54:00,
2013-03-27 16:04:00,51.6,51.6,29.65,NNW,338,1.5,4.0,100,0.00,,,0.00,WSDL version 423,2013-03-27 20:04:00,
2013-03-27 16:14:00,51.1,51.1,29.65,NE,42,1.8,4.9,100,0.00,,,0.00,WSDL version 423,2013-03-27 20:14:00,
2013-03-27 16:24:00,50.9,50.9,29.66,NNW,334,0.0,3.1,100,0.00,,,0.00,WSDL version 423,2013-03-27 20:24:00,
2013-03-27 16:34:00,50.9,50.9,29.66,NW,315,0.0,3.6,100,0.00,,,0.00,WSDL version 423,2013-03-27 20:34:00,
2013-03-27 16:44:00,51.0,51.0,29.66,North,5,1.2,4.0,100,0.00,,,0.00,WSDL version 423,2013-03-27 20:44:00,
2013-03-27 16:54:00,51.5,51.5,29.66,East,87,0.0,3.6,100,0.00,,,0.00,WSDL version 423,2013-03-27 20:54:00,
2013-03-27 17:04:00,50.7,50.7,29.66,ENE,64,1.2,3.6,100,0.00,,,0.00,WSDL version 423,2013-03-27 21:04:00,
2013-03-27 17:14:00,49.5,49.5,29.67,NE,39,0.0,4.9,100,0.00,,,0.00,WSDL version 423,2013-03-27 21:14:00,
2013-03-27 17:24:00,49.6,49.6,29.67,South,174,0.0,4.0,100,0.00,,,0.00,WSDL version 423,2013-03-27 21:24:00,
2013-03-27 17:34:00,48.6,48.6,29.67,North,360,1.8,4.0,100,0.00,,,0.00,WSDL version 423,2013-03-27 21:34:00,
2013-03-27 17:44:00,48.3,48.3,29.68,North,11,0.0,4.0,100,0.00,,,0.00,WSDL version 423,2013-03-27 21:44:00,
2013-03-27 17:54:00,48.7,48.7,29.68,SW,233,0.0,3.1,100,0.00,,,0.00,WSDL version 423,2013-03-27 21:54:00,
2013-03-27 18:04:00,48.2,48.2,29.68,NNW,330,0.0,2.7,100,0.00,,,0.00,WSDL version 423,2013-03-27 22:04:00,
2013-03-27 18:14:00,48.4,48.4,29.69,North,360,1.2,5.8,100,0.00,,,0.00,WSDL version 423,2013-03-27 22:14:00,
2013-03-27 18:24:00,47.6,47.6,29.69,West,281,0.0,4.9,100,0.00,,,0.00,WSDL version 423,2013-03-27 22:24:00,
2013-03-27 18:34:00,47.2,47.2,29.70,SW,225,0.0,3.6,100,0.00,,,0.00,WSDL version 423,2013-03-27 22:34:00,
2013-03-27 18:44:00,46.9,46.9,29.70,SW,225,0.0,3.1,100,0.00,,,0.00,WSDL version 423,2013-03-27 22:44:00,
2013-03-27 18:54:00,46.8,46.8,29.70,North,352,0.0,4.0,100,0.00,,,0.00,WSDL version 423,2013-03-27 22:54:00,
2013-03-27 19:04:00,46.2,46.2,29.71,ENE,68,0.0,3.6,100,0.00,,,0.00,WSDL version 423,2013-03-27 23:04:00,
2013-03-27 19:14:00,45.9,45.9,29.71,NNW,341,0.0,0.0,100,0.00,,,0.00,WSDL version 423,2013-03-27 23:14:00,
2013-03-27 19:24:00,45.3,45.3,29.71,West,270,0.0,0.0,100,0.00,,,0.00,WSDL version 423,2013-03-27 23:24:00,
2013-03-27 19:34:00,45.3,45.3,29.71,NNW,338,0.0,5.4,100,0.00,,,0.00,WSDL version 423,2013-03-27 23:34:00,
2013-03-27 19:44:00,45.4,45.4,29.72,West,270,0.0,2.7,100,0.00,,,0.00,WSDL version 423,2013-03-27 23:44:00,
2013-03-27 19:54:00,45.1,45.1,29.72,West,270,0.0,2.2,100,0.00,,,0.00,WSDL version 423,2013-03-27 23:54:00,
2013-03-27 20:04:00,45.0,45.0,29.73,North,360,0.0,0.0,100,0.00,,,0.00,WSDL version 423,2013-03-28 00:04:00,
2013-03-27 20:14:00,44.7,44.7,29.73,NNW,328,0.0,0.0,100,0.00,,,0.00,WSDL version 423,2013-03-28 00:14:00,
2013-03-27 20:24:00,44.7,44.7,29.74,North,352,0.0,2.7,100,0.00,,,0.00,WSDL version 423,2013-03-28 00:24:00,
2013-03-27 20:34:00,44.0,44.0,29.74,North,8,0.0,2.7,100,0.00,,,0.00,WSDL version 423,2013-03-28 00:34:00,
2013-03-27 20:44:00,44.0,44.0,29.74,East,83,0.2,4.9,100,0.00,,,0.00,WSDL version 423,2013-03-28 00:44:00,
2013-03-27 20:54:00,43.6,43.6,29.75,NE,45,0.0,3.1,100,0.00,,,0.00,WSDL version 423,2013-03-28 00:54:00,
2013-03-27 21:04:00,43.5,43.5,29.75,ENE,68,1.0,4.9,100,0.00,,,0.00,WSDL version 423,2013-03-28 01:04:00,
2013-03-27 21:14:00,43.3,43.3,29.76,NNE,13,1.2,5.4,100,0.00,,,0.00,WSDL version 423,2013-03-28 01:14:00,
2013-03-27 21:24:00,43.1,43.1,29.76,North,360,0.0,5.4,100,0.00,,,0.00,WSDL version 423,2013-03-28 01:24:00,
2013-03-27 21:34:00,42.8,42.8,29.76,SE,141,0.0,3.6,100,0.00,,,0.00,WSDL version 423,2013-03-28 01:34:00,
2013-03-27 21:44:00,42.7,42.7,29.76,NE,53,0.0,4.0,100,0.00,,,0.00,WSDL version 423,2013-03-28 01:44:00,
2013-03-27 21:54:00,42.4,42.4,29.76,East,80,0.0,5.8,100,0.00,,,0.00,WSDL version 423,2013-03-28 01:54:00,
2013-03-27 22:04:00,42.2,42.2,29.76,ENE,65,1.1,4.5,100,0.00,,,0.00,WSDL version 423,2013-03-28 02:04:00,
2013-03-27 22:14:00,42.1,42.1,29.76,NE,53,0.0,8.3,100,0.00,,,0.00,WSDL version 423,2013-03-28 02:14:00,
2013-03-27 22:24:00,41.8,41.8,29.76,NE,39,0.0,4.0,100,0.00,,,0.00,WSDL version 423,2013-03-28 02:24:00,
2013-03-27 22:34:00,41.2,41.2,29.76,West,275,0.0,4.0,100,0.00,,,0.00,WSDL version 423,2013-03-28 02:34:00,
2013-03-27 22:44:00,41.0,41.0,29.76,NNE,23,0.0,4.5,100,0.00,,,0.00,WSDL version 423,2013-03-28 02:44:00,
2013-03-27 22:54:00,40.7,40.7,29.76,SSW,203,0.0,4.0,100,0.00,,,0.00,WSDL version 423,2013-03-28 02:54:00,
2013-03-27 23:04:00,40.6,40.6,29.76,NNE,23,0.0,3.6,100,0.00,,,0.00,WSDL version 423,2013-03-28 03:04:00,
2013-03-27 23:14:00,40.6,40.6,29.76,NNE,19,0.0,4.0,100,0.00,,,0.00,WSDL version 423,2013-03-28 03:14:00,
2013-03-27 23:24:00,40.3,40.3,29.76,North,10,0.0,4.0,100,0.00,,,0.00,WSDL version 423,2013-03-28 03:24:00,
2013-03-27 23:34:00,40.1,40.1,29.76,NNW,335,0.0,2.7,100,0.00,,,0.00,WSDL version 423,2013-03-28 03:34:00,
2013-03-27 23:44:00,39.6,39.6,29.77,NNW,330,0.0,4.0,100,0.00,,,0.00,WSDL version 423,2013-03-28 03:44:00,
2013-03-27 23:54:00,39.2,39.2,29.77,East,79,0.0,4.0,100,0.00,,,0.00,WSDL version 423,2013-03-28 03:54:00,